Time;durP1;ratioP1;P1;durP2;ratioP2;P2;SDS_P1;SDS_P2;PMS_P1;PMS_P2;Temp;Humidity;BMP_temperature;BMP_pressure;BME280_temperature;BME280_humidity;BME280_pressure;Samples;Min_cycle;Max_cycle;Signal;HPM_P1;HPM_P2
2021/06/22 00:00:17;;;;;;;0.85;0.85;;;;;;;28.76;46.52;100736.66;5052359;28;20049;-60
2021/06/22 00:02:43;;;;;;;0.52;0.52;;;;;;;28.76;46.18;100741.22;5052578;28;20048;-60
2021/06/22 00:05:09;;;;;;;0.10;0.10;;;;;;;28.74;46.19;100737.84;5055759;28;20491;-60
2021/06/22 00:07:47;;;;;;;0.25;0.25;;;;;;;28.72;46.14;100740.75;5054674;28;20135;-60
2021/06/22 00:10:14;;;;;;;0.88;0.88;;;;;;;28.70;46.25;100737.38;5056493;28;20064;-60
2021/06/22 00:12:40;;;;;;;0.10;0.10;;;;;;;28.69;46.16;100735.72;5040590;28;20052;-60
2021/06/22 00:15:07;;;;;;;0.15;0.15;;;;;;;28.67;46.45;100742.28;5035115;28;20422;-60
2021/06/22 00:17:33;;;;;;;0.38;0.38;;;;;;;28.66;46.16;100746.00;5036433;28;20045;-60
2021/06/22 00:19:58;;;;;;;0.57;0.57;;;;;;;28.63;46.54;100746.31;5036380;28;20533;-60
2021/06/22 00:22:24;;;;;;;0.25;0.25;;;;;;;28.62;46.47;100750.03;5036102;28;20048;-60
2021/06/22 00:24:49;;;;;;;0.10;0.10;;;;;;;28.59;46.28;100745.84;5036039;28;20053;-60
2021/06/22 00:27:16;;;;;;;0.20;0.20;;;;;;;28.58;46.57;100749.53;5035029;28;20115;-60
2021/06/22 00:29:48;;;;;;;0.00;0.00;;;;;;;28.57;46.42;100750.53;5036140;28;20068;-59
2021/06/22 00:32:14;;;;;;;0.38;0.38;;;;;;;28.56;46.52;100754.28;5036141;28;20053;-60
2021/06/22 00:34:39;;;;;;;0.10;0.10;;;;;;;28.54;46.20;100750.06;5035832;28;20044;-59
2021/06/22 00:37:05;;;;;;;0.25;0.25;;;;;;;28.51;46.59;100747.72;5035787;28;20052;-60
2021/06/22 00:39:31;;;;;;;0.40;0.40;;;;;;;28.49;46.60;100752.47;5035760;28;20123;-58
2021/06/22 00:41:57;;;;;;;0.20;0.20;;;;;;;28.46;46.39;100756.34;5036044;28;20116;-58
2021/06/22 00:44:22;;;;;;;0.28;0.28;;;;;;;28.46;46.45;100764.41;5034653;28;20491;-58
2021/06/22 00:46:48;;;;;;;0.10;0.10;;;;;;;28.43;46.45;100757.53;5034640;28;20048;-58
2021/06/22 00:49:14;;;;;;;0.10;0.10;;;;;;;28.42;46.30;100763.91;5054087;28;20041;-58
2021/06/22 00:51:42;;;;;;;0.20;0.20;;;;;;;28.40;46.25;100757.06;5054578;28;20402;-58
2021/06/22 00:54:09;;;;;;;0.20;0.20;;;;;;;28.38;46.39;100761.75;5055393;28;20036;-58
2021/06/22 00:56:38;;;;;;;0.10;0.10;;;;;;;28.37;46.75;100763.59;5054649;28;20076;-58
2021/06/22 00:59:04;;;;;;;0.10;0.10;;;;;;;28.36;46.34;100766.47;5055636;28;20494;-58
2021/06/22 01:01:30;;;;;;;0.10;0.10;;;;;;;28.32;46.43;100755.25;5055587;28;20040;-59
2021/06/22 01:03:56;;;;;;;0.10;0.10;;;;;;;28.32;46.67;100762.47;5054101;28;20068;-59
2021/06/22 01:06:22;;;;;;;0.10;0.10;;;;;;;28.30;46.37;100765.34;5055446;28;20111;-59
2021/06/22 01:09:10;;;;;;;0.00;0.00;;;;;;;28.27;46.28;100765.66;5040881;28;20052;-59
2021/06/22 01:11:39;;;;;;;0.25;0.25;;;;;;;28.26;46.33;100755.13;5053922;28;20041;-58
2021/06/22 01:14:06;;;;;;;0.57;0.57;;;;;;;28.24;46.55;100759.84;5054895;28;20559;-58
2021/06/22 01:16:32;;;;;;;0.10;0.10;;;;;;;28.22;46.31;100757.31;5054338;28;20040;-58
2021/06/22 01:19:00;;;;;;;0.10;0.10;;;;;;;28.21;46.37;100757.47;5054059;28;20037;-58
2021/06/22 01:21:28;;;;;;;0.17;0.17;;;;;;;28.20;46.68;100763.88;5055194;28;20075;-58
2021/06/22 01:24:11;;;;;;;0.30;0.30;;;;;;;28.18;46.49;100763.19;5053959;28;20581;-58
2021/06/22 01:26:39;;;;;;;0.25;0.25;;;;;;;28.17;46.58;100772.28;5055115;28;20056;-58
2021/06/22 01:29:08;;;;;;;0.30;0.30;;;;;;;28.16;46.72;100771.44;5055039;28;20044;-58
2021/06/22 01:31:34;;;;;;;0.20;0.20;;;;;;;28.14;46.40;100772.66;5053821;28;20144;-59
2021/06/22 01:34:00;;;;;;;0.25;0.25;;;;;;;28.13;46.61;100782.53;5053542;28;20051;-58
2021/06/22 01:36:30;;;;;;;0.10;0.10;;;;;;;28.11;46.61;100779.19;5054644;28;20567;-58
2021/06/22 01:38:56;;;;;;;0.10;0.10;;;;;;;28.10;46.60;100782.06;5054616;28;20048;-58
2021/06/22 01:41:22;;;;;;;0.10;0.10;;;;;;;28.08;46.31;100778.69;5054544;28;20044;-58
2021/06/22 01:43:49;;;;;;;0.40;0.40;;;;;;;28.08;46.72;100789.44;5053623;28;20033;-58
2021/06/22 01:46:16;;;;;;;0.10;0.10;;;;;;;28.06;46.45;100783.41;5053610;28;20417;-57
2021/06/22 01:48:42;;;;;;;0.30;0.30;;;;;;;28.04;46.76;100777.34;5036714;28;20045;-59
2021/06/22 01:51:08;;;;;;;0.25;0.25;;;;;;;28.04;46.71;100788.09;5053195;28;20056;-58
2021/06/22 01:53:35;;;;;;;0.13;0.13;;;;;;;28.02;46.74;100785.56;5054601;28;20036;-58
2021/06/22 01:56:12;;;;;;;0.10;0.10;;;;;;;28.01;46.61;100793.81;5054958;28;20095;-58
2021/06/22 01:58:41;;;;;;;0.10;0.10;;;;;;;28.00;46.58;100792.97;5054570;28;20099;-57
2021/06/22 02:01:16;;;;;;;1.15;0.63;;;;;;;27.98;46.74;100784.22;5053070;28;20060;-58
2021/06/22 02:03:58;;;;;;;0.10;0.10;;;;;;;27.98;46.67;100794.16;5053106;28;20467;-58
2021/06/22 02:06:24;;;;;;;0.10;0.10;;;;;;;27.97;46.45;100792.47;5054023;28;20037;-58
2021/06/22 02:09:10;;;;;;;0.13;0.13;;;;;;;27.95;46.65;100795.31;5046867;28;20139;-58
2021/06/22 02:11:36;;;;;;;0.30;0.30;;;;;;;27.94;46.70;100790.97;5052832;28;20498;-48
2021/06/22 02:14:05;;;;;;;0.30;0.30;;;;;;;27.95;46.60;100792.63;5053385;28;20059;-59
2021/06/22 02:16:31;;;;;;;0.10;0.10;;;;;;;27.94;46.60;100786.44;5053038;28;20036;-59
2021/06/22 02:19:00;;;;;;;;;;;;;;;27.92;46.71;100785.78;5052996;28;20053;-59
2021/06/22 02:21:26;;;;;;;0.10;0.10;;;;;;;27.93;46.68;100791.97;5053936;28;19928;-59
2021/06/22 02:23:52;;;;;;;0.40;0.40;;;;;;;27.91;46.32;100794.03;5052747;28;20048;-59
2021/06/22 02:26:21;;;;;;;0.65;0.65;;;;;;;27.90;46.63;100795.88;5052704;28;20135;-59
2021/06/22 02:28:47;;;;;;;0.10;0.10;;;;;;;27.89;46.61;100796.88;5053812;28;20087;-58
2021/06/22 02:31:14;;;;;;;0.10;0.10;;;;;;;27.89;46.63;100802.22;5053873;28;20421;-58
2021/06/22 02:33:40;;;;;;;0.20;0.20;;;;;;;27.89;46.53;100807.59;5052674;28;20044;-59
2021/06/22 02:36:07;;;;;;;0.22;0.20;;;;;;;27.87;46.39;100804.25;5053737;28;20044;-59
2021/06/22 02:38:41;;;;;;;0.10;0.10;;;;;;;27.88;46.54;100805.91;5053537;28;20060;-59
2021/06/22 02:41:10;;;;;;;0.30;0.30;;;;;;;27.88;46.42;100805.06;5053369;28;20398;-58
2021/06/22 02:43:38;;;;;;;0.10;0.10;;;;;;;27.87;46.54;100798.91;5052199;28;20053;-59
2021/06/22 02:46:07;;;;;;;0.10;0.10;;;;;;;27.88;46.55;100803.22;5053324;28;20048;-58
2021/06/22 02:48:34;;;;;;;0.10;0.10;;;;;;;27.87;46.63;100803.41;5053552;28;20052;-59
2021/06/22 02:51:00;;;;;;;0.20;0.20;;;;;;;27.88;46.54;100802.38;5052358;28;20041;-59
2021/06/22 02:53:32;;;;;;;0.20;0.20;;;;;;;27.86;46.35;100807.94;5053185;28;20056;-59
2021/06/22 02:55:58;;;;;;;2.20;1.55;;;;;;;27.86;46.40;100802.59;5036608;28;20042;-59
2021/06/22 02:58:32;;;;;;;0.10;0.10;;;;;;;27.87;46.36;100803.41;5032411;28;20092;-59
2021/06/22 03:00:58;;;;;;;0.20;0.20;;;;;;;27.86;46.66;100804.41;5032158;28;20047;-58
2021/06/22 03:03:26;;;;;;;0.20;0.20;;;;;;;27.86;46.36;100802.59;5032641;28;20554;-59
2021/06/22 03:06:01;;;;;;;0.10;0.10;;;;;;;27.86;46.57;100802.59;5051473;28;20081;-59
2021/06/22 03:08:41;;;;;;;0.10;0.10;;;;;;;27.84;46.74;100801.94;5052105;28;20095;-58
2021/06/22 03:11:10;;;;;;;0.10;0.10;;;;;;;27.83;46.81;100808.28;5028867;28;20045;-58
2021/06/22 03:13:36;;;;;;;0.20;0.20;;;;;;;27.81;46.50;100807.63;5031404;28;20407;-58
2021/06/22 03:16:05;;;;;;;0.28;0.28;;;;;;;27.79;46.74;100806.97;5050071;28;20041;-58
2021/06/22 03:18:32;;;;;;;0.10;0.10;;;;;;;27.77;46.73;100806.31;5033983;28;20037;-60
2021/06/22 03:20:58;;;;;;;0.10;0.10;;;;;;;27.78;46.76;100801.78;5031119;28;20052;-58
2021/06/22 03:23:25;;;;;;;0.10;0.10;;;;;;;27.75;46.94;100805.63;5031150;28;20132;-59
2021/06/22 03:25:52;;;;;;;0.20;0.20;;;;;;;27.74;47.17;100809.34;5032509;28;20179;-59
2021/06/22 03:28:20;;;;;;;0.30;0.30;;;;;;;27.70;47.23;100799.94;5037236;28;20049;-58
2021/06/22 03:31:08;;;;;;;0.15;0.15;;;;;;;27.69;46.83;100810.84;5042329;28;20049;-58
2021/06/22 03:33:34;;;;;;;0.30;0.30;;;;;;;27.68;47.26;100798.44;5051386;28;20045;-58
2021/06/22 03:35:59;;;;;;;0.10;0.10;;;;;;;27.69;47.27;100811.69;5052900;28;20082;-57
2021/06/22 03:38:25;;;;;;;0.13;0.13;;;;;;;27.69;47.30;100811.69;5051273;28;20037;-59
2021/06/22 03:40:51;;;;;;;0.15;0.15;;;;;;;27.70;47.13;100813.34;5053053;28;20048;-59
2021/06/22 03:43:17;;;;;;;0.90;0.90;;;;;;;27.71;46.93;100803.47;5051882;28;20033;-59
2021/06/22 03:45:52;;;;;;;0.10;0.10;;;;;;;27.72;47.19;100805.97;5035990;28;20055;-59
2021/06/22 03:48:20;;;;;;;0.25;0.25;;;;;;;27.74;47.15;100806.66;5051624;28;20045;-59
2021/06/22 03:50:47;;;;;;;0.20;0.20;;;;;;;27.72;47.36;100811.34;5052729;28;20033;-58
2021/06/22 03:53:13;;;;;;;0.35;0.35;;;;;;;27.72;47.18;100805.13;5040133;28;20095;-59
2021/06/22 03:55:39;;;;;;;0.05;0.05;;;;;;;27.72;47.34;100805.97;5032477;28;20087;-59
2021/06/22 03:58:11;;;;;;;0.20;0.20;;;;;;;27.70;47.53;100808.00;5043736;28;20409;-58
2021/06/22 04:00:44;;;;;;;0.10;0.10;;;;;;;27.73;47.49;100807.66;5046330;28;20053;-59
2021/06/22 04:03:16;;;;;;;0.10;0.10;;;;;;;27.75;47.18;100807.47;5032719;28;20049;-59
2021/06/22 04:06:15;;;;;;;0.10;0.10;;;;;;;27.78;47.29;100799.91;5009627;28;20049;-44
2021/06/22 04:08:42;;;;;;;0.10;0.10;;;;;;;27.85;47.22;100813.47;5031213;28;20049;-44
2021/06/22 04:11:14;;;;;;;0.20;0.20;;;;;;;27.89;46.91;100807.59;5031451;28;20568;-43
2021/06/22 04:13:40;;;;;;;0.10;0.10;;;;;;;27.95;47.03;100809.59;5031255;28;20491;-44
2021/06/22 04:16:08;;;;;;;0.10;0.10;;;;;;;28.02;46.91;100806.22;5031543;28;20453;-45
2021/06/22 04:18:33;;;;;;;0.20;0.20;;;;;;;28.06;46.93;100810.25;5031094;28;20041;-46
2021/06/22 04:21:02;;;;;;;0.20;0.20;;;;;;;28.10;46.78;100808.91;5032240;28;20572;-45
2021/06/22 04:23:35;;;;;;;0.25;0.25;;;;;;;28.14;47.09;100815.63;5031314;28;20144;-43
2021/06/22 04:26:02;;;;;;;1.55;0.85;;;;;;;28.18;46.95;100811.56;5030995;28;20046;-43
2021/06/22 04:28:27;;;;;;;0.25;0.25;;;;;;;28.21;47.09;100816.56;5031286;28;20495;-43
2021/06/22 04:30:53;;;;;;;0.05;0.05;;;;;;;28.23;46.71;100815.41;5047609;28;20075;-44
2021/06/22 04:33:19;;;;;;;0.10;0.10;;;;;;;28.25;46.76;100816.06;5032475;28;20088;-43
2021/06/22 04:35:44;;;;;;;0.10;0.10;;;;;;;28.29;46.89;100819.25;5036336;28;20111;-43
2021/06/22 04:38:10;;;;;;;0.10;0.10;;;;;;;28.31;47.00;100814.50;5049454;28;20453;-43
2021/06/22 04:40:37;;;;;;;0.10;0.10;;;;;;;28.32;46.98;100813.50;5049927;28;20133;-43
2021/06/22 04:43:03;;;;;;;0.20;0.20;;;;;;;28.32;47.07;100808.13;5049891;28;20052;-43
2021/06/22 04:45:28;;;;;;;0.20;0.20;;;;;;;28.30;47.02;100804.81;5049666;28;20051;-43
2021/06/22 04:47:55;;;;;;;0.13;0.13;;;;;;;28.29;46.87;100808.50;5049581;28;20135;-43
2021/06/22 04:50:21;;;;;;;0.20;0.20;;;;;;;28.28;47.11;100820.25;5049856;28;20041;-47
2021/06/22 04:52:46;;;;;;;0.20;0.20;;;;;;;28.29;47.08;100811.19;5043701;28;20049;-43
2021/06/22 04:55:13;;;;;;;0.00;0.00;;;;;;;28.33;47.18;100809.81;5053891;28;20041;-43
2021/06/22 04:57:43;;;;;;;0.20;0.20;;;;;;;28.36;46.85;100802.25;5054913;28;20489;-44
2021/06/22 05:00:09;;;;;;;0.10;0.10;;;;;;;28.32;47.13;100790.16;5054886;28;20528;-42
2021/06/22 05:02:35;;;;;;;0.22;0.22;;;;;;;28.39;46.77;100807.28;5054568;28;20098;-45
2021/06/22 05:05:03;;;;;;;0.20;0.20;;;;;;;28.38;46.94;100804.75;5033690;28;20049;-44
2021/06/22 05:07:29;;;;;;;0.00;0.00;;;;;;;28.41;47.25;100807.06;5034520;28;20040;-43
2021/06/22 05:09:55;;;;;;;0.00;0.00;;;;;;;28.43;47.22;100810.44;5044307;28;20044;-44
2021/06/22 05:12:21;;;;;;;0.15;0.15;;;;;;;28.45;47.15;100813.78;5053902;28;20502;-43
2021/06/22 05:14:47;;;;;;;1.02;0.25;;;;;;;28.48;46.83;100808.06;5052645;28;20520;-47
2021/06/22 05:17:13;;;;;;;0.10;0.10;;;;;;;28.49;46.79;100815.09;5054612;28;20041;-44
2021/06/22 05:19:38;;;;;;;3.28;0.40;;;;;;;28.50;47.10;100810.56;5054586;28;20048;-43
2021/06/22 05:22:04;;;;;;;0.10;0.10;;;;;;;28.51;46.89;100812.22;5054164;28;20494;-44
2021/06/22 05:24:30;;;;;;;0.22;0.22;;;;;;;28.51;46.84;100812.22;5054452;28;20494;-42
2021/06/22 05:26:55;;;;;;;0.30;0.30;;;;;;;28.54;46.83;100818.09;5047654;28;20048;-44
2021/06/22 05:29:21;;;;;;;0.10;0.10;;;;;;;28.55;46.84;100811.72;5046874;28;20049;-45
2021/06/22 05:31:46;;;;;;;0.00;0.00;;;;;;;28.58;47.11;100819.41;5034425;28;20491;-44
2021/06/22 05:34:12;;;;;;;0.32;0.25;;;;;;;28.60;46.97;100816.56;5034379;28;20041;-45
2021/06/22 05:36:37;;;;;;;0.32;0.32;;;;;;;28.62;46.68;100818.06;5033047;28;20042;-44
2021/06/22 05:39:03;;;;;;;0.10;0.10;;;;;;;28.67;46.65;100820.22;5036120;28;20490;-44
2021/06/22 05:41:29;;;;;;;0.10;0.10;;;;;;;28.73;46.57;100822.25;5048509;28;20183;-53
2021/06/22 05:43:55;;;;;;;0.10;0.10;;;;;;;28.73;46.73;100817.66;5054133;28;20049;-53
2021/06/22 05:46:20;;;;;;;0.30;0.30;;;;;;;28.74;46.57;100824.72;5053662;28;20047;-54
2021/06/22 05:48:46;;;;;;;0.10;0.10;;;;;;;28.75;46.64;100826.41;5053625;28;20045;-49
2021/06/22 05:51:11;;;;;;;0.20;0.20;;;;;;;28.77;46.67;100826.22;5053906;28;20045;-50
2021/06/22 05:53:37;;;;;;;0.10;0.10;;;;;;;28.77;46.66;100821.69;5053897;28;20083;-49
2021/06/22 05:56:03;;;;;;;0.00;0.00;;;;;;;28.76;46.58;100811.94;5053580;28;20044;-50
2021/06/22 05:58:28;;;;;;;0.10;0.10;;;;;;;28.76;46.30;100820.00;5053808;28;20045;-49
2021/06/22 06:00:54;;;;;;;0.10;0.10;;;;;;;28.76;46.62;100811.94;5053635;28;20037;-50
2021/06/22 06:03:20;;;;;;;0.20;0.20;;;;;;;28.70;46.51;100799.22;5053300;28;20122;-59
2021/06/22 06:05:45;;;;;;;0.00;0.00;;;;;;;28.79;46.46;100805.38;5053382;28;20049;-51
2021/06/22 06:08:11;;;;;;;0.00;0.00;;;;;;;28.84;46.10;100809.19;5053301;28;20076;-55
2021/06/22 06:10:37;;;;;;;0.10;0.10;;;;;;;28.89;46.17;100812.19;5053493;28;20483;-53
2021/06/22 06:13:02;;;;;;;0.00;0.00;;;;;;;28.92;46.02;100806.47;5053534;28;20106;-51
2021/06/22 06:15:28;;;;;;;0.10;0.10;;;;;;;28.98;46.29;100806.75;5053104;28;20057;-54
2021/06/22 06:17:54;;;;;;;0.10;0.10;;;;;;;29.00;46.05;100808.25;5046932;28;20410;-54
2021/06/22 06:20:19;;;;;;;0.15;0.15;;;;;;;29.03;46.16;100807.03;5042856;28;20407;-50
2021/06/22 06:22:47;;;;;;;0.35;0.10;;;;;;;29.08;45.96;100804.66;5053241;28;20033;-50
2021/06/22 06:25:13;;;;;;;0.10;0.10;;;;;;;29.12;46.26;100797.91;5046002;28;20383;-56
2021/06/22 06:30:19;;;;;;;0.10;0.10;;;;;;;29.15;46.27;100802.94;5033782;28;20059;-55
2021/06/22 06:32:45;;;;;;;0.15;0.15;;;;;;;29.15;46.12;100797.53;5052778;28;20036;-59
2021/06/22 06:35:11;;;;;;;0.00;0.00;;;;;;;29.17;45.98;100795.50;5052852;28;20051;-55
2021/06/22 06:37:37;;;;;;;0.50;0.50;;;;;;;29.20;46.43;100800.50;5052779;28;20045;-50
2021/06/22 06:40:04;;;;;;;0.00;0.00;;;;;;;29.22;46.23;100801.19;5048189;28;20072;-55
2021/06/22 06:42:31;;;;;;;0.75;0.68;;;;;;;29.23;46.28;100806.38;5046168;28;20143;-45
2021/06/22 06:44:56;;;;;;;0.17;0.17;;;;;;;29.25;46.25;100806.25;5049243;28;20041;-44
2021/06/22 06:47:22;;;;;;;0.30;0.30;;;;;;;29.25;46.35;100800.84;5046407;28;20033;-44
2021/06/22 06:49:48;;;;;;;0.32;0.32;;;;;;;29.26;46.40;100799.81;5041562;28;20029;-45
2021/06/22 06:52:14;;;;;;;0.05;0.05;;;;;;;29.27;46.33;100799.66;5029390;28;20041;-45
2021/06/22 06:54:39;;;;;;;0.40;0.40;;;;;;;29.29;46.61;100802.13;5029577;28;20033;-47
2021/06/22 06:57:06;;;;;;;0.10;0.10;;;;;;;29.28;46.67;100793.25;5030826;28;20633;-44
2021/06/22 06:59:32;;;;;;;0.00;0.00;;;;;;;29.29;46.49;100791.38;5038766;28;20498;-44
2021/06/22 07:01:58;;;;;;;0.10;0.10;;;;;;;29.32;46.66;100801.78;5053259;28;20090;-44
2021/06/22 07:04:23;;;;;;;0.10;0.10;;;;;;;29.30;46.64;100799.28;5053307;28;20040;-46
2021/06/22 07:06:49;;;;;;;0.52;0.52;;;;;;;29.33;46.65;100795.38;5051934;28;20406;-44
2021/06/22 07:09:14;;;;;;;0.10;0.10;;;;;;;29.34;46.64;100799.75;5053265;28;20043;-44
2021/06/22 07:11:40;;;;;;;0.10;0.10;;;;;;;29.35;46.84;100796.88;5053191;28;20036;-44
2021/06/22 07:14:06;;;;;;;0.10;0.10;;;;;;;29.36;46.67;100797.72;5052327;28;20057;-44
2021/06/22 07:16:33;;;;;;;0.10;0.10;;;;;;;29.37;46.83;100789.47;5053175;28;20052;-44
2021/06/22 07:18:59;;;;;;;0.10;0.10;;;;;;;29.40;46.84;100793.66;5053093;28;20036;-45
2021/06/22 07:21:24;;;;;;;0.00;0.00;;;;;;;29.42;46.62;100795.13;5043661;28;20458;-44
2021/06/22 07:23:52;;;;;;;0.10;0.10;;;;;;;29.45;46.76;100791.22;5033123;28;20044;-44
2021/06/22 07:26:17;;;;;;;0.00;0.00;;;;;;;29.47;46.93;100789.19;5032802;28;20038;-43
2021/06/22 07:28:43;;;;;;;0.15;0.13;;;;;;;29.51;46.73;100790.53;5033097;28;20040;-42
2021/06/22 07:31:09;;;;;;;0.20;0.20;;;;;;;29.53;46.55;100793.00;5033090;28;20048;-42
2021/06/22 07:33:34;;;;;;;0.00;0.00;;;;;;;29.56;46.47;100789.94;5032777;28;20632;-42
2021/06/22 07:36:00;;;;;;;0.00;0.00;;;;;;;29.59;46.58;100790.41;5035876;28;20037;-43
2021/06/22 07:38:26;;;;;;;0.20;0.20;;;;;;;29.61;46.49;100788.41;5043795;28;20044;-42
2021/06/22 07:40:51;;;;;;;0.00;0.00;;;;;;;29.63;46.62;100788.19;5038292;28;20461;-42
2021/06/22 07:43:17;;;;;;;0.10;0.10;;;;;;;29.65;46.57;100795.06;5034392;28;20502;-42
2021/06/22 07:45:43;;;;;;;0.10;0.10;;;;;;;29.68;46.45;100786.59;5041646;28;20038;-42
2021/06/22 07:48:09;;;;;;;39.92;1.55;;;;;;;29.69;46.45;100785.59;5032527;28;20037;-42
2021/06/22 07:50:35;;;;;;;0.10;0.10;;;;;;;29.71;46.57;100794.31;5032694;28;20048;-43
2021/06/22 07:53:02;;;;;;;0.13;0.13;;;;;;;29.73;46.63;100794.97;5032389;28;20411;-42
2021/06/22 07:55:30;;;;;;;0.28;0.10;;;;;;;29.75;46.40;100786.69;5035402;28;20163;-42
2021/06/22 07:57:56;;;;;;;0.00;0.00;;;;;;;29.76;46.49;100794.63;5039481;28;20503;-43
2021/06/22 08:00:45;;;;;;;0.40;0.40;;;;;;;29.79;46.56;100805.00;5039309;28;20053;-43
2021/06/22 08:03:21;;;;;;;0.10;0.10;;;;;;;29.82;46.52;100799.25;5046480;28;20052;-42
2021/06/22 08:05:48;;;;;;;0.05;0.05;;;;;;;29.84;46.40;100808.00;5033815;28;20425;-42
2021/06/22 08:08:16;;;;;;;0.10;0.10;;;;;;;29.87;46.53;100809.50;5032353;28;20084;-42
2021/06/22 08:10:42;;;;;;;0.00;0.00;;;;;;;29.87;46.36;100809.50;5032668;28;20048;-43
2021/06/22 08:13:07;;;;;;;0.17;0.17;;;;;;;29.87;46.36;100807.66;5032762;28;20041;-42
2021/06/22 08:15:33;;;;;;;0.10;0.10;;;;;;;29.89;46.50;100811.00;5032208;28;20057;-42
2021/06/22 08:17:59;;;;;;;0.05;0.05;;;;;;;29.91;46.33;100814.31;5032615;28;20044;-42
2021/06/22 08:20:25;;;;;;;0.10;0.10;;;;;;;29.93;46.32;100809.59;5032583;28;20041;-42
2021/06/22 08:22:54;;;;;;;0.17;0.17;;;;;;;29.94;46.30;100803.19;5032603;28;20072;-42
2021/06/22 08:25:24;;;;;;;0.00;0.00;;;;;;;29.96;46.44;100801.16;5034318;28;20041;-42
2021/06/22 08:27:49;;;;;;;0.15;0.15;;;;;;;29.98;46.23;100812.56;5036264;28;20038;-44
2021/06/22 08:30:16;;;;;;;0.20;0.20;;;;;;;30.00;46.35;100809.69;5035162;28;20051;-44
2021/06/22 08:32:41;;;;;;;0.10;0.10;;;;;;;30.02;46.22;100810.34;5036263;28;20072;-44
2021/06/22 08:35:08;;;;;;;0.10;0.10;;;;;;;30.04;46.24;100813.66;5036103;28;20410;-44
2021/06/22 08:37:34;;;;;;;0.08;0.08;;;;;;;30.06;46.14;100811.66;5036193;28;20066;-45
2021/06/22 08:39:59;;;;;;;0.10;0.10;;;;;;;30.11;46.21;100813.75;5036474;28;20033;-45
2021/06/22 08:42:25;;;;;;;0.10;0.10;;;;;;;30.13;46.11;100811.72;5036084;28;20041;-43
2021/06/22 08:44:51;;;;;;;0.20;0.20;;;;;;;30.14;46.08;100802.63;5036060;28;20033;-44
2021/06/22 08:47:25;;;;;;;0.10;0.10;;;;;;;30.17;45.94;100807.66;5035933;28;20068;-44
2021/06/22 08:49:52;;;;;;;0.00;0.00;;;;;;;30.19;46.01;100808.28;5036483;28;20041;-44
2021/06/22 08:52:25;;;;;;;0.77;0.22;;;;;;;30.20;46.05;100799.19;5036643;28;20041;-44
2021/06/22 08:54:54;;;;;;;0.10;0.10;;;;;;;30.21;46.12;100798.97;5034410;28;20073;-46
2021/06/22 08:57:20;;;;;;;0.00;0.00;;;;;;;30.24;45.95;100804.00;5035818;28;20045;-44
2021/06/22 08:59:46;;;;;;;0.10;0.10;;;;;;;30.26;45.95;100806.50;5035716;28;20048;-44
2021/06/22 09:02:11;;;;;;;0.20;0.20;;;;;;;30.28;45.89;100807.16;5035375;28;20045;-44
2021/06/22 09:04:37;;;;;;;0.00;0.00;;;;;;;30.28;46.00;100810.69;5035770;28;20100;-44
2021/06/22 09:07:03;;;;;;;0.20;0.20;;;;;;;30.30;45.76;100799.72;5035294;28;20038;-44
2021/06/22 09:09:39;;;;;;;0.00;0.00;;;;;;;30.34;45.85;100782.13;5037141;28;20528;-44
2021/06/22 09:12:06;;;;;;;0.38;0.22;;;;;;;30.39;45.68;100779.72;5045175;28;20130;-44
2021/06/22 09:14:36;;;;;;;0.10;0.10;;;;;;;30.41;45.78;100788.47;5040893;28;20526;-45
2021/06/22 09:17:03;;;;;;;0.00;0.00;;;;;;;30.44;45.69;100783.53;5042854;28;20052;-44
2021/06/22 09:19:30;;;;;;;0.00;0.00;;;;;;;30.47;46.00;100791.25;5035362;28;20041;-43
2021/06/22 09:21:56;;;;;;;0.00;0.00;;;;;;;30.48;45.69;100790.22;5034180;28;20044;-44
2021/06/22 09:24:22;;;;;;;0.10;0.10;;;;;;;30.51;45.64;100780.91;5035294;28;20483;-46
2021/06/22 09:26:49;;;;;;;0.20;0.20;;;;;;;30.54;45.66;100782.38;5035180;28;20045;-46
2021/06/22 09:29:16;;;;;;;0.10;0.10;;;;;;;30.54;45.63;100783.22;5047511;28;20041;-46
2021/06/22 09:31:58;;;;;;;0.10;0.10;;;;;;;30.57;45.54;100785.53;5055038;28;20135;-49
2021/06/22 09:34:25;;;;;;;0.10;0.10;;;;;;;30.60;45.52;100785.16;5052624;28;20049;-46
2021/06/22 09:36:54;;;;;;;0.10;0.10;;;;;;;30.62;45.70;100785.81;5033998;28;20048;-46
2021/06/22 09:39:21;;;;;;;0.10;0.10;;;;;;;30.65;45.43;100780.03;5035062;28;20042;-46
2021/06/22 09:41:46;;;;;;;0.00;0.00;;;;;;;30.67;45.65;100788.75;5035517;28;20033;-46
2021/06/22 09:44:16;;;;;;;0.00;0.00;;;;;;;30.69;45.39;100775.94;5043031;28;20041;-50
2021/06/22 09:46:53;;;;;;;0.10;0.10;;;;;;;30.68;45.48;100778.81;5053628;28;20044;-48
2021/06/22 09:49:30;;;;;;;0.10;0.10;;;;;;;30.67;45.42;100774.44;5053391;28;20051;-49
2021/06/22 09:52:03;;;;;;;0.10;0.10;;;;;;;30.68;45.35;100770.72;5042000;28;20057;-50
2021/06/22 09:54:33;;;;;;;0.20;0.20;;;;;;;30.67;45.36;100777.97;5034468;28;20049;-49
2021/06/22 09:57:06;;;;;;;0.10;0.10;;;;;;;30.68;45.34;100768.88;5043163;28;20064;-48
2021/06/22 09:59:46;;;;;;;0.00;0.00;;;;;;;30.72;45.16;100780.09;5053839;28;20041;-50
2021/06/22 10:02:12;;;;;;;0.00;0.00;;;;;;;30.77;45.06;100789.28;5053383;28;20045;-50
2021/06/22 10:04:44;;;;;;;0.10;0.10;;;;;;;30.81;45.09;100774.41;5053683;28;20098;-48
2021/06/22 10:07:11;;;;;;;0.10;0.10;;;;;;;30.86;45.08;100782.72;5039983;28;20037;-47
2021/06/22 10:09:37;;;;;;;0.10;0.10;;;;;;;30.91;44.95;100783.00;5033725;28;20077;-46
2021/06/22 10:12:03;;;;;;;0.10;0.10;;;;;;;30.94;44.86;100777.22;5033395;28;20049;-46
2021/06/22 10:14:36;;;;;;;0.05;0.05;;;;;;;30.96;44.72;100772.47;5037881;28;20056;-47
2021/06/22 10:17:04;;;;;;;0.00;0.00;;;;;;;31.01;44.69;100768.38;5044928;28;20048;-47
2021/06/22 10:19:30;;;;;;;0.10;0.10;;;;;;;31.05;44.52;100769.66;5051989;28;20243;-47
2021/06/22 10:21:55;;;;;;;0.10;0.10;;;;;;;31.10;44.69;100772.59;5052289;28;20079;-49
2021/06/22 10:24:22;;;;;;;0.15;0.15;;;;;;;31.12;44.59;100765.16;5052673;28;20513;-47
2021/06/22 10:26:48;;;;;;;0.10;0.10;;;;;;;31.14;44.57;100766.63;5052453;28;20087;-50
2021/06/22 10:29:17;;;;;;;0.10;0.10;;;;;;;31.17;44.49;100757.31;5052239;28;20044;-48
2021/06/22 10:31:42;;;;;;;0.10;0.10;;;;;;;31.21;44.35;100758.59;5052988;28;20502;-50
2021/06/22 10:34:08;;;;;;;0.10;0.10;;;;;;;31.23;44.30;100762.75;5046786;28;20096;-47
2021/06/22 10:36:35;;;;;;;0.10;0.10;;;;;;;31.26;44.36;100758.81;5051814;28;20044;-48
2021/06/22 10:39:09;;;;;;;0.00;0.00;;;;;;;31.27;44.43;100752.41;5044451;28;20033;-47
2021/06/22 10:41:37;;;;;;;0.10;0.10;;;;;;;31.32;44.01;100760.72;5034667;28;20087;-46
2021/06/22 10:44:25;;;;;;;0.10;0.10;;;;;;;31.33;44.12;100755.16;5051494;28;20041;-45
2021/06/22 10:47:15;;;;;;;0.00;0.00;;;;;;;31.38;44.26;100763.47;5051772;28;20569;-47
2021/06/22 10:50:00;;;;;;;0.00;0.00;;;;;;;31.42;43.94;100764.75;5052713;28;20045;-46
2021/06/22 10:52:41;;;;;;;0.10;0.10;;;;;;;31.48;44.06;100765.81;5052822;28;20048;-46
2021/06/22 10:55:18;;;;;;;0.10;0.10;;;;;;;31.51;44.05;100753.84;5050842;28;20098;-46
2021/06/22 10:58:10;;;;;;;0.10;0.10;;;;;;;31.54;43.84;100757.00;5052757;28;20094;-48
2021/06/22 11:00:59;;;;;;;0.00;0.00;;;;;;;31.56;43.95;100757.63;5052689;28;20048;-46
2021/06/22 11:03:34;;;;;;;0.10;0.10;;;;;;;31.60;43.96;100752.66;5049514;28;20044;-46
2021/06/22 11:06:02;;;;;;;0.00;0.00;;;;;;;31.62;43.66;100745.19;5052630;28;20414;-48
2021/06/22 11:08:31;;;;;;;0.10;0.10;;;;;;;31.65;43.80;100745.63;5052608;28;20049;-47
2021/06/22 11:10:56;;;;;;;0.10;0.10;;;;;;;31.67;43.54;100748.13;5050983;28;20033;-46
2021/06/22 11:13:34;;;;;;;0.20;0.20;;;;;;;31.68;43.45;100745.22;5035764;28;20521;-49
2021/06/22 11:16:05;;;;;;;0.32;0.32;;;;;;;31.72;43.23;100749.19;5048851;28;20041;-48
2021/06/22 11:18:56;;;;;;;0.10;0.10;;;;;;;31.75;43.37;100739.84;5052420;28;20113;-48
2021/06/22 11:21:29;;;;;;;0.00;0.00;;;;;;;31.77;43.12;100738.63;5052349;28;20081;-48
2021/06/22 11:24:05;;;;;;;0.10;0.10;;;;;;;31.78;43.42;100728.63;5032128;28;20048;-48
2021/06/22 11:26:49;;;;;;;0.10;0.10;;;;;;;31.82;43.41;100735.31;5032238;28;20099;-46
2021/06/22 11:29:20;;;;;;;0.15;0.15;;;;;;;31.86;43.07;100742.84;5032139;28;20491;-46
2021/06/22 11:31:52;;;;;;;0.32;0.20;;;;;;;31.89;43.03;100728.91;5032288;28;20132;-48